createdAt,value
2023-01-01T00:00:41.526Z,99890.28
2023-01-01T00:03:08.639Z,99908.34
2023-01-01T00:05:38.739Z,99906.63
2023-01-01T00:08:05.815Z,99907.41
2023-01-01T00:10:33.796Z,99901.38
2023-01-01T00:13:01.206Z,99892.69
2023-01-01T00:15:28.255Z,99898.72
2023-01-01T00:17:55.592Z,99890.00
2023-01-01T00:20:23.022Z,99897.72
2023-01-01T00:22:55.066Z,99897.72
2023-01-01T00:25:23.574Z,99903.75
2023-01-01T00:27:51.143Z,99921.97
2023-01-01T00:30:18.654Z,99897.97
2023-01-01T00:32:54.991Z,99906.56
2023-01-01T00:35:26.247Z,99909.09
2023-01-01T00:37:54.611Z,99904.00
2023-01-01T00:40:21.781Z,99913.53
2023-01-01T00:42:48.845Z,99908.34
2023-01-01T00:45:21.429Z,99916.13
2023-01-01T00:47:53.841Z,99924.00
2023-01-01T00:50:22.507Z,99929.19
2023-01-01T00:52:50.408Z,99927.41
2023-01-01T00:55:17.738Z,99922.19
2023-01-01T00:57:44.901Z,99925.69
2023-01-01T01:00:12.766Z,99918.91
2023-01-01T01:02:40.168Z,99922.38
2023-01-01T01:05:08.021Z,99919.84
2023-01-01T01:07:39.310Z,99922.53
2023-01-01T01:10:07.374Z,99929.34
2023-01-01T01:12:35.843Z,99927.63
2023-01-01T01:15:04.438Z,99920.75
2023-01-01T01:17:31.767Z,99917.25
2023-01-01T01:19:59.075Z,99930.22
2023-01-01T01:22:29.027Z,99915.63
2023-01-01T01:24:56.824Z,99919.09
2023-01-01T01:27:24.502Z,99922.59
2023-01-01T01:29:51.690Z,99929.56
2023-01-01T01:32:19.047Z,99931.41
2023-01-01T01:34:46.916Z,99943.44
2023-01-01T01:37:13.942Z,99945.16
2023-01-01T01:39:41.124Z,99939.03
2023-01-01T01:42:08.332Z,99945.16
2023-01-01T01:44:47.820Z,99937.34
2023-01-01T01:47:54.527Z,99949.50
2023-01-01T01:50:23.765Z,99950.41
2023-01-01T01:53:13.131Z,99959.09
2023-01-01T01:55:45.391Z,99963.41
2023-01-01T01:58:15.660Z,99944.31
2023-01-01T02:00:43.189Z,99953.84
2023-01-01T02:03:20.428Z,99942.56
2023-01-01T02:05:49.054Z,99945.06
2023-01-01T02:08:16.892Z,99962.28
2023-01-01T02:10:44.227Z,99952.03
2023-01-01T02:13:11.788Z,99954.50
2023-01-01T02:16:13.877Z,99958.88
2023-01-01T02:18:51.818Z,99962.41
2023-01-01T02:21:27.219Z,99963.34
2023-01-01T02:24:13.030Z,99963.31
2023-01-01T02:26:45.906Z,99964.22
2023-01-01T02:29:28.081Z,99972.88
2023-01-01T02:32:04.566Z,99967.66
2023-01-01T02:34:40.070Z,99964.22
2023-01-01T02:37:10.634Z,99966.06
2023-01-01T02:39:43.290Z,99960.88
2023-01-01T02:42:10.473Z,99969.53
2023-01-01T02:44:42.222Z,99960.94
2023-01-01T02:47:12.316Z,99960.94
2023-01-01T02:49:49.699Z,99964.50
2023-01-01T02:52:44.420Z,99971.41
2023-01-01T02:55:32.589Z,99966.34
2023-01-01T02:58:43.926Z,99966.25
2023-01-01T03:01:35.067Z,99965.47
2023-01-01T03:04:20.500Z,99977.53
2023-01-01T03:06:56.791Z,99981.91
2023-01-01T03:09:42.310Z,99978.44
2023-01-01T03:12:25.519Z,99978.47
2023-01-01T03:15:07.323Z,99969.75
2023-01-01T03:17:39.055Z,99987.91
2023-01-01T03:20:16.061Z,99976.72
2023-01-01T03:25:18.837Z,99989.56
2023-01-01T03:27:52.877Z,99985.19
2023-01-01T03:30:21.549Z,99980.78
2023-01-01T03:33:05.574Z,99981.66
2023-01-01T03:36:20.508Z,99985.06
2023-01-01T03:39:02.211Z,99990.28
2023-01-01T03:41:41.093Z,99995.44
2023-01-01T03:44:11.521Z,100004.09
2023-01-01T03:46:38.626Z,100004.19
2023-01-01T03:49:09.402Z,99987.69
2023-01-01T03:51:51.382Z,99992.91
2023-01-01T03:54:36.544Z,99983.34
2023-01-01T03:57:20.830Z,99989.34
2023-01-01T04:00:00.403Z,99985.06
2023-01-01T04:02:41.220Z,99986.69
2023-01-01T04:05:12.943Z,99988.38
2023-01-01T04:10:17.563Z,100003.09
2023-01-01T04:12:50.627Z,99998.00
2023-01-01T04:15:23.318Z,100003.94
2023-01-01T04:17:51.055Z,100009.16
2023-01-01T04:20:18.912Z,99991.88
2023-01-01T04:22:46.484Z,99997.06
2023-01-01T04:25:15.033Z,99998.75
2023-01-01T04:27:42.136Z,100002.25
2023-01-01T04:30:11.675Z,100011.72
2023-01-01T04:32:39.757Z,99997.06
2023-01-01T04:35:09.006Z,100005.69
2023-01-01T04:37:36.925Z,99996.91
2023-01-01T04:40:05.831Z,100009.03
2023-01-01T04:42:33.028Z,100009.91
2023-01-01T04:45:00.150Z,100005.59
2023-01-01T04:47:27.541Z,100016.84
2023-01-01T04:49:54.996Z,100024.59
2023-01-01T04:52:22.604Z,100038.44
2023-01-01T04:54:49.694Z,100029.91
2023-01-01T04:57:16.804Z,100030.81
2023-01-01T04:59:44.109Z,100029.06
2023-01-01T05:02:11.350Z,100031.66
2023-01-01T05:04:38.566Z,100040.38
2023-01-01T05:07:05.630Z,100024.94
2023-01-01T05:09:32.807Z,100037.03
2023-01-01T05:11:59.832Z,100036.22
2023-01-01T05:14:26.991Z,100044.81
2023-01-01T05:16:54.101Z,100048.31
2023-01-01T05:19:21.209Z,100042.34
2023-01-01T05:21:48.204Z,100028.50
2023-01-01T05:24:16.096Z,100019.81
2023-01-01T05:26:45.070Z,100021.59
2023-01-01T05:29:16.961Z,100031.13
2023-01-01T05:31:45.285Z,100045.84
2023-01-01T05:34:12.614Z,100058.84
2023-01-01T05:36:40.089Z,100075.22
2023-01-01T05:39:09.503Z,100078.75
2023-01-01T05:41:36.965Z,100083.97
2023-01-01T05:44:06.478Z,100090.91
2023-01-01T05:46:33.924Z,100083.97
2023-01-01T05:49:01.589Z,100090.84
2023-01-01T05:51:30.121Z,100095.19
2023-01-01T05:53:58.705Z,100082.25
2023-01-01T05:56:26.554Z,100090.97
2023-01-01T05:58:54.492Z,100089.34
2023-01-01T06:01:26.934Z,100090.97
2023-01-01T06:03:55.541Z,100101.34
2023-01-01T06:06:25.405Z,100094.47
2023-01-01T06:08:54.502Z,100089.34
2023-01-01T06:11:21.861Z,100089.38
2023-01-01T06:13:51.725Z,100088.59
2023-01-01T06:16:18.802Z,100086.06
2023-01-01T06:18:45.892Z,100103.31
2023-01-01T06:21:18.662Z,100098.13
2023-01-01T06:23:46.462Z,100109.38
2023-01-01T06:26:16.965Z,100110.16
2023-01-01T06:28:45.086Z,100117.00
2023-01-01T06:31:14.279Z,100118.75
2023-01-01T06:33:41.662Z,100127.44
2023-01-01T06:36:10.890Z,100133.41
2023-01-01T06:38:42.414Z,100127.31
2023-01-01T06:41:15.499Z,100116.88
2023-01-01T06:43:43.208Z,100128.09
2023-01-01T06:46:24.998Z,100135.94
2023-01-01T06:48:57.374Z,100132.44
2023-01-01T06:51:36.916Z,100135.88
2023-01-01T06:54:04.910Z,100145.41
2023-01-01T06:56:32.560Z,100139.34
2023-01-01T06:59:00.179Z,100141.00
2023-01-01T07:01:30.266Z,100149.53
2023-01-01T07:04:00.393Z,100147.72
2023-01-01T07:06:29.473Z,100158.09
2023-01-01T07:08:57.200Z,100164.91
2023-01-01T07:11:25.192Z,100173.38
2023-01-01T07:13:52.318Z,100181.03
2023-01-01T07:16:19.847Z,100183.53
2023-01-01T07:18:49.237Z,100177.38
2023-01-01T07:21:34.602Z,100183.41
2023-01-01T07:24:04.274Z,100188.53
2023-01-01T07:26:33.014Z,100187.59
2023-01-01T07:29:08.599Z,100176.25
2023-01-01T07:31:41.266Z,100191.66
2023-01-01T07:34:13.165Z,100189.84
2023-01-01T07:36:41.525Z,100194.94
2023-01-01T07:39:09.074Z,100202.66
2023-01-01T07:41:37.008Z,100193.22
2023-01-01T07:44:04.653Z,100200.22
2023-01-01T07:46:34.011Z,100200.91
2023-01-01T07:49:01.141Z,100201.84
2023-01-01T07:51:28.321Z,100201.00
2023-01-01T07:53:59.270Z,100205.25
2023-01-01T07:56:29.529Z,100191.50
2023-01-01T07:58:56.675Z,100215.66
2023-01-01T08:01:23.802Z,100204.44
2023-01-01T08:03:53.065Z,100209.63
2023-01-01T08:06:20.697Z,100203.56
2023-01-01T08:08:47.835Z,100210.38
2023-01-01T08:11:14.967Z,100211.25
2023-01-01T08:13:42.055Z,100196.56
2023-01-01T08:16:09.333Z,100202.50
2023-01-01T08:18:36.811Z,100192.19
2023-01-01T08:21:04.547Z,100204.97
2023-01-01T08:23:31.734Z,100211.91
2023-01-01T08:26:00.512Z,100210.16
2023-01-01T08:28:27.941Z,100207.56
2023-01-01T08:30:55.321Z,100206.69
2023-01-01T08:33:23.375Z,100208.41
2023-01-01T08:35:54.385Z,100212.75
2023-01-01T08:38:22.233Z,100206.69
2023-01-01T08:40:49.305Z,100203.28
2023-01-01T08:43:16.323Z,100210.97
2023-01-01T08:45:43.593Z,100212.66
2023-01-01T08:48:10.637Z,100216.03
2023-01-01T08:50:37.861Z,100216.78
2023-01-01T08:53:05.011Z,100204.78
2023-01-01T08:55:32.176Z,100216.72
2023-01-01T08:57:59.370Z,100211.50
2023-01-01T09:00:26.620Z,100221.03
2023-01-01T09:02:54.360Z,100235.75
2023-01-01T09:05:21.563Z,100242.66
2023-01-01T09:07:48.660Z,100242.66
2023-01-01T09:10:15.853Z,100240.94
2023-01-01T09:12:43.002Z,100241.75
2023-01-01T09:15:16.491Z,100241.66
2023-01-01T09:17:43.630Z,100237.25
2023-01-01T09:20:11.014Z,100237.25
2023-01-01T09:22:38.121Z,100231.13
2023-01-01T09:25:05.581Z,100237.09
2023-01-01T09:27:32.763Z,100231.81
2023-01-01T09:30:00.566Z,100228.25
2023-01-01T09:32:30.067Z,100223.81
2023-01-01T09:34:57.792Z,100222.91
2023-01-01T09:37:25.076Z,100221.03
2023-01-01T09:39:53.068Z,100219.25
2023-01-01T09:42:34.145Z,100217.47
2023-01-01T09:45:03.975Z,100229.50
2023-01-01T09:47:38.563Z,100213.81
2023-01-01T09:50:12.682Z,100210.34
2023-01-01T09:53:07.040Z,100217.31
2023-01-01T09:55:55.711Z,100229.34
2023-01-01T09:58:26.857Z,100219.75
2023-01-01T10:00:58.097Z,100222.38
2023-01-01T10:03:49.770Z,100235.22
2023-01-01T10:06:24.862Z,100225.63
2023-01-01T10:09:22.612Z,100231.72
2023-01-01T10:12:08.082Z,100221.31
2023-01-01T10:14:41.059Z,100251.66
2023-01-01T10:17:28.002Z,100241.31
2023-01-01T10:20:00.183Z,100258.63
2023-01-01T10:22:35.371Z,100259.53
2023-01-01T10:25:15.752Z,100262.06
2023-01-01T10:27:59.143Z,100269.03
2023-01-01T10:30:28.411Z,100258.53
2023-01-01T10:32:57.152Z,100256.78
2023-01-01T10:35:46.667Z,100257.63
2023-01-01T10:38:25.357Z,100255.00
2023-01-01T10:41:03.663Z,100252.38
2023-01-01T10:43:30.767Z,100258.41
2023-01-01T10:46:00.691Z,100245.34
2023-01-01T10:48:33.032Z,100248.88
2023-01-01T10:51:15.321Z,100248.13
2023-01-01T10:53:50.026Z,100252.38
2023-01-01T10:56:23.145Z,100258.41
2023-01-01T10:58:52.848Z,100261.97
2023-01-01T11:01:34.027Z,100260.19
2023-01-01T11:04:01.350Z,100249.78
2023-01-01T11:06:48.911Z,100250.69
2023-01-01T11:09:25.819Z,100258.53
2023-01-01T11:12:24.595Z,100248.22
2023-01-01T11:14:58.217Z,100247.28
2023-01-01T11:17:28.919Z,100258.53
2023-01-01T11:20:01.736Z,100261.16
2023-01-01T11:22:43.982Z,100270.84
2023-01-01T11:25:23.553Z,100268.25
2023-01-01T11:27:51.809Z,100263.91
2023-01-01T11:30:27.514Z,100270.84
2023-01-01T11:33:00.827Z,100257.78
2023-01-01T11:35:32.459Z,100265.56
2023-01-01T11:38:00.526Z,100266.44
2023-01-01T11:40:37.302Z,100267.25
2023-01-01T11:43:07.221Z,100268.97
2023-01-01T11:45:42.597Z,100278.50
2023-01-01T11:48:19.184Z,100278.50
2023-01-01T11:51:02.132Z,100275.88
2023-01-01T11:53:31.276Z,100273.22
2023-01-01T11:56:16.019Z,100274.13
2023-01-01T11:58:54.720Z,100279.31
2023-01-01T12:01:28.055Z,100274.13
2023-01-01T12:04:07.186Z,100267.19
2023-01-01T12:06:36.850Z,100279.31
2023-01-01T12:09:18.472Z,100274.16
2023-01-01T12:12:00.372Z,100272.47
2023-01-01T12:14:48.463Z,100283.78
2023-01-01T12:17:23.445Z,100294.97
2023-01-01T12:19:53.231Z,100295.06
2023-01-01T12:22:20.312Z,100291.66
2023-01-01T12:24:48.906Z,100291.72
2023-01-01T12:27:51.810Z,100305.63
2023-01-01T12:30:21.158Z,100300.50
2023-01-01T12:33:08.460Z,100309.22
2023-01-01T12:35:43.584Z,100307.47
2023-01-01T12:38:20.128Z,100320.53
2023-01-01T12:41:01.365Z,100329.28
2023-01-01T12:43:34.239Z,100321.41
2023-01-01T12:46:19.653Z,100318.88
2023-01-01T12:49:14.787Z,100326.69
2023-01-01T12:51:57.713Z,100305.06
2023-01-01T12:54:45.869Z,100312.91
2023-01-01T12:57:48.412Z,100306.06
2023-01-01T13:00:20.314Z,100293.91
2023-01-01T13:02:59.756Z,100301.72
2023-01-01T13:05:42.635Z,100302.72
2023-01-01T13:08:10.182Z,100316.53
2023-01-01T13:10:45.294Z,100320.03
2023-01-01T13:13:14.201Z,100311.41
2023-01-01T13:15:41.728Z,100307.97
2023-01-01T13:18:14.869Z,100320.16
2023-01-01T13:20:47.498Z,100326.25
2023-01-01T13:23:29.682Z,100338.41
2023-01-01T13:26:18.668Z,100341.13
2023-01-01T13:28:59.717Z,100350.75
2023-01-01T13:31:39.394Z,100346.53
2023-01-01T13:34:32.635Z,100346.59
2023-01-01T13:37:14.040Z,100351.81
2023-01-01T13:39:59.781Z,100358.78
2023-01-01T13:42:52.054Z,100369.25
2023-01-01T13:48:39.429Z,100379.72
2023-01-01T13:51:33.672Z,100371.06
2023-01-01T13:54:27.022Z,100367.66
2023-01-01T13:56:56.895Z,100369.38
2023-01-01T13:59:30.001Z,100370.28
2023-01-01T14:02:29.185Z,100385.06
2023-01-01T14:05:02.446Z,100381.69
2023-01-01T14:07:51.277Z,100398.22
2023-01-01T14:10:31.664Z,100395.66
2023-01-01T14:13:08.739Z,100397.50
2023-01-01T14:15:44.893Z,100388.09
2023-01-01T14:18:16.476Z,100399.31
2023-01-01T14:20:48.193Z,100401.09
2023-01-01T14:23:27.275Z,100409.84
2023-01-01T14:25:54.663Z,100416.88
2023-01-01T14:28:26.687Z,100422.13
2023-01-01T14:30:55.706Z,100432.53
2023-01-01T14:33:28.244Z,100441.19
2023-01-01T14:35:57.953Z,100422.19
2023-01-01T14:38:35.962Z,100434.34
2023-01-01T14:41:18.242Z,100424.03
2023-01-01T14:43:48.066Z,100441.28
2023-01-01T14:46:34.387Z,100437.81
2023-01-01T14:49:08.115Z,100443.03
2023-01-01T14:51:40.841Z,100453.41
2023-01-01T14:54:17.459Z,100451.69
2023-01-01T14:56:47.788Z,100465.53
2023-01-01T14:59:28.970Z,100469.13
2023-01-01T15:02:28.575Z,100486.44
2023-01-01T15:04:56.750Z,100483.84
2023-01-01T15:07:26.697Z,100480.47
2023-01-01T15:09:56.856Z,100495.19
2023-01-01T15:12:24.662Z,100493.50
2023-01-01T15:14:54.530Z,100503.91
2023-01-01T15:17:23.918Z,100510.84
2023-01-01T15:20:19.940Z,100507.44
2023-01-01T15:22:47.649Z,100507.56
2023-01-01T15:25:17.994Z,100509.19
2023-01-01T15:27:49.049Z,100509.25
2023-01-01T15:30:36.363Z,100507.56
2023-01-01T15:33:17.192Z,100513.66
2023-01-01T15:35:47.824Z,100521.50
2023-01-01T15:38:26.973Z,100523.28
2023-01-01T15:40:54.151Z,100528.50
2023-01-01T15:43:31.033Z,100530.25
2023-01-01T15:46:20.440Z,100546.72
2023-01-01T15:48:53.653Z,100552.00
2023-01-01T15:51:24.461Z,100554.59
2023-01-01T15:54:01.376Z,100555.50
2023-01-01T15:56:32.401Z,100568.53
2023-01-01T15:59:09.404Z,100578.91
2023-01-01T16:01:40.035Z,100584.13
2023-01-01T16:04:28.356Z,100573.84
2023-01-01T16:06:57.904Z,100584.22
2023-01-01T16:09:25.169Z,100572.25
2023-01-01T16:11:54.542Z,100584.28
2023-01-01T16:14:21.897Z,100582.56
2023-01-01T16:16:56.999Z,100585.22
2023-01-01T16:19:24.960Z,100576.59
2023-01-01T16:21:52.187Z,100572.31
2023-01-01T16:24:20.136Z,100568.13
2023-01-01T16:26:48.024Z,100581.91
2023-01-01T16:29:16.146Z,100575.91
2023-01-01T16:31:44.865Z,100583.69
2023-01-01T16:34:14.516Z,100582.88
2023-01-01T16:36:42.953Z,100576.84
2023-01-01T16:39:10.274Z,100579.47
2023-01-01T16:41:40.838Z,100584.69
2023-01-01T16:44:09.543Z,100583.88
2023-01-01T16:46:36.762Z,100584.78
2023-01-01T16:49:04.785Z,100583.03
2023-01-01T16:51:32.536Z,100581.41
2023-01-01T16:54:01.102Z,100588.25
2023-01-01T16:56:29.664Z,100596.97
2023-01-01T16:59:02.848Z,100603.03
2023-01-01T17:01:30.568Z,100611.69
2023-01-01T17:03:58.012Z,100618.63
2023-01-01T17:06:25.106Z,100620.38
2023-01-01T17:08:52.289Z,100619.53
2023-01-01T17:11:19.652Z,100616.94
2023-01-01T17:13:48.213Z,100628.22
2023-01-01T17:16:23.537Z,100628.25
2023-01-01T17:21:40.714Z,100629.94
2023-01-01T17:24:08.054Z,100636.91
2023-01-01T17:26:35.450Z,100633.44
2023-01-01T17:29:03.596Z,100627.41
2023-01-01T17:31:31.275Z,100628.25
2023-01-01T17:33:59.593Z,100629.16
2023-01-01T17:36:27.724Z,100642.13
2023-01-01T17:38:55.324Z,100644.72
2023-01-01T17:41:22.921Z,100642.13
2023-01-01T17:43:51.838Z,100647.31
2023-01-01T17:46:22.413Z,100650.81
2023-01-01T17:48:50.224Z,100655.09
2023-01-01T17:51:18.929Z,100654.25
2023-01-01T17:53:46.944Z,100656.00
2023-01-01T17:56:15.870Z,100664.59
2023-01-01T17:58:44.543Z,100656.88
2023-01-01T18:01:14.458Z,100668.94
2023-01-01T18:03:42.228Z,100664.59
2023-01-01T18:06:09.524Z,100666.34
2023-01-01T18:08:36.857Z,100668.09
2023-01-01T18:11:03.984Z,100675.88
2023-01-01T18:13:33.631Z,100677.59
2023-01-01T18:16:02.112Z,100679.34
2023-01-01T18:18:31.022Z,100681.06
2023-01-01T18:21:05.512Z,100687.09
2023-01-01T18:23:34.401Z,100696.59
2023-01-01T18:26:06.997Z,100704.38
2023-01-01T18:28:34.384Z,100702.69
2023-01-01T18:31:28.988Z,100713.03
2023-01-01T18:33:56.421Z,100729.47
2023-01-01T18:36:27.376Z,100720.84
2023-01-01T18:39:15.232Z,100698.50
2023-01-01T18:42:01.023Z,100721.78
2023-01-01T18:44:31.218Z,100726.09
2023-01-01T18:47:04.230Z,100720.06
2023-01-01T18:49:32.459Z,100716.59
2023-01-01T18:52:28.073Z,100706.25
2023-01-01T18:55:12.365Z,100722.66
2023-01-01T18:57:40.795Z,100723.53
2023-01-01T19:00:24.489Z,100723.53
2023-01-01T19:02:51.573Z,100730.47
2023-01-01T19:05:28.486Z,100722.69
2023-01-01T19:08:07.765Z,100714.91
2023-01-01T19:10:35.066Z,100721.78
2023-01-01T19:13:15.341Z,100718.34
2023-01-01T19:15:58.066Z,100724.38
2023-01-01T19:18:31.964Z,100727.81
2023-01-01T19:21:19.748Z,100720.91
2023-01-01T19:23:54.175Z,100722.63
2023-01-01T19:26:48.804Z,100724.31
2023-01-01T19:29:15.905Z,100732.06
2023-01-01T19:31:44.240Z,100726.00
2023-01-01T19:34:11.478Z,100724.28
2023-01-01T19:36:38.864Z,100733.78
2023-01-01T19:39:07.099Z,100743.28
2023-01-01T19:41:34.242Z,100744.13
2023-01-01T19:44:02.050Z,100734.63
2023-01-01T19:46:29.450Z,100738.94
2023-01-01T19:48:57.720Z,100731.16
2023-01-01T19:51:25.521Z,100733.75
2023-01-01T19:53:53.887Z,100744.94
2023-01-01T19:56:21.773Z,100745.81
2023-01-01T19:58:49.709Z,100742.34
2023-01-01T20:01:17.271Z,100737.16
2023-01-01T20:04:00.438Z,100747.50
2023-01-01T20:06:28.048Z,100750.09
2023-01-01T20:08:55.305Z,100761.34
2023-01-01T20:11:22.863Z,100764.84
2023-01-01T20:13:50.001Z,100771.72
2023-01-01T20:16:17.126Z,100776.03
2023-01-01T20:18:44.301Z,100772.59
2023-01-01T20:21:29.992Z,100770.00
2023-01-01T20:23:57.093Z,100754.47
2023-01-01T20:26:25.852Z,100761.38
2023-01-01T20:29:11.361Z,100768.28
2023-01-01T20:31:38.655Z,100767.44
2023-01-01T20:34:05.758Z,100761.44
2023-01-01T20:36:51.634Z,100762.25
2023-01-01T20:39:18.689Z,100771.78
2023-01-01T20:41:45.823Z,100759.72
2023-01-01T20:44:12.869Z,100766.63
2023-01-01T20:46:41.387Z,100768.34
2023-01-01T20:49:08.966Z,100768.38
2023-01-01T20:51:36.129Z,100770.94
2023-01-01T20:54:03.837Z,100759.72
2023-01-01T20:56:31.818Z,100770.09
2023-01-01T20:59:04.451Z,100768.41
2023-01-01T21:01:40.099Z,100770.13
2023-01-01T21:04:07.489Z,100772.72
2023-01-01T21:06:34.562Z,100783.94
2023-01-01T21:09:05.124Z,100784.81
2023-01-01T21:11:36.128Z,100787.41
2023-01-01T21:14:03.634Z,100785.69
2023-01-01T21:16:36.873Z,100778.78
2023-01-01T21:19:07.283Z,100764.16
2023-01-01T21:21:43.145Z,100780.53
2023-01-01T21:24:20.426Z,100783.13
2023-01-01T21:26:49.959Z,100784.00
2023-01-01T21:29:20.088Z,100777.97
2023-01-01T21:31:51.962Z,100780.56
2023-01-01T21:34:35.233Z,100792.63
2023-01-01T21:37:12.843Z,100790.06
2023-01-01T21:39:40.064Z,100791.78
2023-01-01T21:42:24.934Z,100792.66
2023-01-01T21:44:57.581Z,100796.13
2023-01-01T21:47:26.375Z,100802.16
2023-01-01T21:49:56.282Z,100797.84
2023-01-01T21:52:25.528Z,100796.13
2023-01-01T21:54:53.495Z,100803.91
2023-01-01T21:57:25.042Z,100797.84
2023-01-01T21:59:54.363Z,100785.78
2023-01-01T22:02:34.184Z,100801.31
2023-01-01T22:05:17.943Z,100794.41
2023-01-01T22:07:57.588Z,100792.66
2023-01-01T22:10:42.960Z,100789.22
2023-01-01T22:13:17.171Z,100781.47
2023-01-01T22:15:44.835Z,100789.19
2023-01-01T22:18:11.949Z,100797.81
2023-01-01T22:20:42.048Z,100785.72
2023-01-01T22:23:27.287Z,100791.78
2023-01-01T22:25:54.479Z,100777.97
2023-01-01T22:28:27.520Z,100773.66
2023-01-01T22:31:02.579Z,100777.09
2023-01-01T22:33:38.607Z,100782.28
2023-01-01T22:36:27.166Z,100776.25
2023-01-01T22:39:26.272Z,100780.53
2023-01-01T22:41:53.675Z,100770.19
2023-01-01T22:44:21.305Z,100775.38
2023-01-01T22:46:48.863Z,100768.47
2023-01-01T22:49:22.176Z,100777.97
2023-01-01T22:51:52.296Z,100789.16
2023-01-01T22:54:19.365Z,100785.69
2023-01-01T22:56:46.581Z,100785.72
2023-01-01T22:59:13.713Z,100786.59
2023-01-01T23:01:40.896Z,100780.53
2023-01-01T23:04:08.028Z,100784.88
2023-01-01T23:06:35.178Z,100792.66
2023-01-01T23:09:02.387Z,100758.16
2023-01-01T23:11:29.497Z,100766.81
2023-01-01T23:14:15.112Z,100793.53
2023-01-01T23:16:42.249Z,100778.88
2023-01-01T23:19:09.316Z,100796.09
2023-01-01T23:21:36.926Z,100797.84
2023-01-01T23:24:08.268Z,100795.28
2023-01-01T23:26:35.589Z,100801.31
2023-01-01T23:29:03.470Z,100791.88
2023-01-01T23:31:31.793Z,100784.09
2023-01-01T23:33:59.271Z,100780.66
2023-01-01T23:36:28.383Z,100762.56
2023-01-01T23:38:55.480Z,100754.78
2023-01-01T23:41:23.370Z,100753.06
2023-01-01T23:43:50.660Z,100749.63
2023-01-01T23:46:18.880Z,100751.34
2023-01-01T23:48:47.789Z,100734.13
2023-01-01T23:51:16.589Z,100723.75
2023-01-01T23:53:43.726Z,100718.59
2023-01-01T23:56:11.057Z,100726.38
2023-01-01T23:58:38.287Z,100725.53
